Jefferson, NC

8:38 AM EST on December 15, 2019 (GMT -0500)
Ashe County

Weather History for KGEV - August, 2019

Change the Weather History Date:

Saturday, August 24, 2019

  Actual Average Record
Temperature  
Mean Temperature 62 °F -  
Max Temperature 67 °F 77 °F 88 °F (1968)
Min Temperature 56 °F 55 °F 47 °F (1969)
Degree Days  
Heating Degree Days 4    
Growing Degree Days 12 (Base 50)    
Moisture  
Dew Point 60 °F    
Average Humidity 99    
Maximum Humidity 100    
Minimum Humidity 96    
Precipitation  
Precipitation 0.55 in - - ()
Sea Level Pressure  
Sea Level Pressure 30.21 in    
Wind  
Wind Speed 1 mph ()    
Max Wind Speed 6 mph    
Max Gust Speed -    
Visibility 4.3 miles    
Events Fog , Rain    
Averages and records for this station are not official NWS values.
T = Trace of Precipitation, MM = Missing Value Source: Averaged Metar Reports

Daily Weather History Graph

Daily Weather History Graph

Search for Another Location

Airport or City:

Astronomy

Aug. 24, 2019 Rise Set
Actual Time 6:50 AM EDT 8:05 PM EDT
Civil Twilight 6:23 AM EDT 8:31 PM EDT
Nautical Twilight 5:51 AM EDT 9:03 PM EDT
Astronomical Twilight 5:18 AM EDT 9:36 PM EDT
Moon 12:46 AM EDT (8/24) 3:14 PM EDT (8/24)
Length of Visible Light 14h 08m
Length of Day
13h 14m
Last Quarter, 39% of the Moon is Illuminated
Aug 24
Last Quarter
Aug 30
New
Sep 5
First Quarter
Sep 14
Full
Sep 21
Last Quarter

Hourly Weather History & Observations

Time (EDT) Temp. Dew Point Humidity Pressure Visibility Wind Dir Wind Speed Gust Speed Precip Events Conditions
12:15 AM 67.1 °F 66.0 °F 96% 30.17 in 10.0 mi Calm Calm - N/A   Overcast
12:35 AM 67.1 °F 65.8 °F 96% 30.17 in 10.0 mi Calm Calm - N/A   Overcast
12:55 AM 66.7 °F 66.0 °F 98% 30.17 in 10.0 mi Calm Calm - N/A Rain Light Rain
1:15 AM 66.2 °F 65.8 °F 99% 30.17 in 4.0 mi Calm Calm - 0.02 in   Overcast
1:35 AM 66.6 °F 66.0 °F 98% 30.17 in 7.0 mi Calm Calm - 0.02 in Rain Light Rain
1:55 AM 66.2 °F 65.8 °F 99% 30.17 in 2.5 mi Calm Calm - 0.02 in   Light Drizzle
2:15 AM 66.2 °F 65.8 °F 99% 30.17 in 10.0 mi Calm Calm - N/A   Overcast
2:35 AM 65.8 °F 65.3 °F 98% 30.16 in 10.0 mi WNW 3.5 mph - N/A   Overcast
2:55 AM 65.7 °F 65.3 °F 99% 30.15 in 10.0 mi WNW 3.5 mph - N/A   Overcast
3:15 AM 65.3 °F 65.3 °F 100% 30.15 in 4.0 mi Calm Calm - N/A   Overcast
3:35 AM 65.5 °F 65.5 °F 100% 30.15 in 2.0 mi Calm Calm - 0.01 in Rain Heavy Rain
3:55 AM 65.3 °F 65.3 °F 100% 30.15 in 0.8 mi Calm Calm - 0.03 in Rain Light Rain
4:15 AM 65.3 °F 65.3 °F 100% 30.15 in 1.2 mi Calm Calm - 0.01 in Rain Light Rain
4:35 AM 65.3 °F 65.3 °F 100% 30.14 in 2.0 mi Calm Calm - 0.01 in   Light Drizzle
4:55 AM 65.3 °F 65.3 °F 100% 30.14 in 0.2 mi WNW 4.6 mph - 0.01 in Fog Fog
5:15 AM 63.7 °F 63.7 °F 100% 30.14 in 4.0 mi WNW 5.8 mph - 0.01 in   Heavy Drizzle
5:35 AM 63.5 °F 63.5 °F 100% 30.15 in 2.0 mi Calm Calm - 0.03 in Rain Light Rain
5:55 AM 62.6 °F 62.6 °F 100% 30.16 in 0.8 mi WNW 3.5 mph - 0.04 in Rain Heavy Rain
6:15 AM 61.9 °F 61.9 °F 100% 30.16 in 3.0 mi Calm Calm - 0.04 in Rain Light Rain
6:35 AM 61.2 °F 61.2 °F 100% 30.17 in 1.5 mi WNW 3.5 mph - 0.09 in Rain Heavy Rain
6:55 AM 61.2 °F 61.2 °F 100% 30.18 in 1.0 mi WNW 3.5 mph - 0.11 in Rain Rain
7:15 AM 60.8 °F 60.8 °F 100% 30.18 in 1.0 mi Calm Calm - N/A Rain Light Rain
7:35 AM 60.8 °F 60.8 °F 100% 30.19 in 1.0 mi Calm Calm - 0.01 in Rain Rain
7:55 AM 60.8 °F 60.8 °F 100% 30.19 in 1.2 mi Calm Calm - 0.02 in Rain Rain
8:15 AM 61.0 °F 61.0 °F 100% 30.20 in 0.5 mi Calm Calm - 0.03 in Rain Heavy Rain
8:35 AM 60.8 °F 60.8 °F 100% 30.20 in 0.8 mi Calm Calm - 0.12 in Rain Heavy Rain
8:55 AM 60.4 °F 60.4 °F 100% 30.21 in 0.8 mi WNW 3.5 mph - 0.12 in   Drizzle
9:15 AM 59.5 °F 59.5 °F 100% 30.21 in 2.5 mi WNW 3.5 mph - 0.01 in   Light Drizzle
9:35 AM 59.2 °F 59.2 °F 100% 30.22 in 1.0 mi WNW 4.6 mph - 0.04 in Rain Heavy Rain
9:55 AM 58.8 °F 58.8 °F 100% 30.24 in 0.5 mi WNW 3.5 mph - 0.17 in Rain Heavy Rain
10:15 AM 58.6 °F 58.6 °F 100% 30.24 in 0.8 mi WNW 5.8 mph - 0.02 in   Drizzle
10:35 AM 58.1 °F 58.1 °F 100% 30.24 in 1.0 mi WNW 4.6 mph - 0.02 in   Overcast
10:55 AM 57.6 °F 57.6 °F 100% 30.24 in 7.0 mi WNW 3.5 mph - 0.02 in   Overcast
11:15 AM 57.4 °F 57.4 °F 100% 30.25 in 7.0 mi WNW 3.5 mph - N/A   Overcast
11:35 AM 57.4 °F 57.4 °F 100% 30.25 in 3.0 mi WNW 3.5 mph - N/A   Overcast
11:55 AM 56.8 °F 56.8 °F 100% 30.25 in 4.0 mi Calm Calm - N/A   Overcast
12:15 PM 56.7 °F 56.7 °F 100% 30.25 in 0.2 mi Calm Calm - N/A Fog Fog
12:35 PM 57.0 °F 57.0 °F 100% 30.25 in 0.2 mi WNW 3.5 mph - N/A Fog Fog
12:55 PM 57.4 °F 57.4 °F 100% 30.24 in 2.5 mi Calm Calm - N/A   Overcast
1:15 PM 57.7 °F 57.7 °F 100% 30.24 in 10.0 mi Calm Calm - N/A   Overcast
1:35 PM 57.9 °F 57.9 °F 100% 30.24 in 10.0 mi Calm Calm - N/A   Overcast
1:55 PM 58.1 °F 58.1 °F 100% 30.24 in 10.0 mi Calm Calm - N/A   Overcast
2:15 PM 58.1 °F 58.1 °F 100% 30.24 in 7.0 mi Calm Calm - N/A   Overcast
2:35 PM 57.6 °F 57.6 °F 100% 30.24 in 5.0 mi Calm Calm - N/A   Overcast
2:55 PM 57.6 °F 57.6 °F 100% 30.24 in 2.5 mi Calm Calm - N/A   Overcast
3:15 PM 57.7 °F 57.6 °F 99% 30.23 in 2.5 mi Calm Calm - N/A   Overcast
3:55 PM 58.5 °F 57.7 °F 97% 30.22 in 10.0 mi Calm Calm - N/A   Overcast
4:15 PM 58.8 °F 57.7 °F 96% 30.21 in 10.0 mi Calm Calm - N/A   Overcast
4:55 PM 58.5 °F 57.2 °F 96% 30.21 in 5.0 mi WNW 4.6 mph - N/A   Overcast
5:15 PM 57.9 °F 57.4 °F 98% 30.21 in 3.0 mi WNW 3.5 mph - N/A   Overcast
5:35 PM 57.6 °F 57.4 °F 99% 30.21 in 3.0 mi Calm Calm - N/A   Overcast
5:55 PM 57.6 °F 57.4 °F 99% 30.21 in 4.0 mi Calm Calm - N/A   Overcast
6:35 PM 57.2 °F 57.2 °F 100% 30.21 in 1.5 mi WNW 4.6 mph - N/A   Drizzle
7:15 PM 56.8 °F 56.8 °F 100% 30.22 in 1.8 mi WNW 3.5 mph - N/A   Overcast
7:35 PM 56.8 °F 56.8 °F 100% 30.22 in 1.2 mi Calm Calm - N/A   Overcast
8:15 PM 56.7 °F 56.7 °F 100% 30.23 in 1.5 mi WNW 3.5 mph - N/A   Drizzle
8:35 PM 56.7 °F 56.7 °F 100% 30.24 in 1.2 mi Calm Calm - N/A   Light Drizzle
8:55 PM 56.5 °F 56.5 °F 100% 30.24 in 1.5 mi Calm Calm - 0.01 in   Drizzle
9:15 PM 56.3 °F 56.3 °F 100% 30.25 in 1.8 mi WNW 3.5 mph - N/A   Light Drizzle
9:35 PM 56.3 °F 56.3 °F 100% 30.25 in 5.0 mi Calm Calm - N/A   Overcast
9:55 PM 56.3 °F 56.3 °F 100% 30.26 in 7.0 mi Calm Calm - N/A   Overcast
10:15 PM 56.5 °F 56.3 °F 99% 30.26 in 10.0 mi Calm Calm - N/A   Overcast
10:35 PM 56.7 °F 56.7 °F 100% 30.25 in 5.0 mi Calm Calm - N/A   Overcast
10:55 PM 56.5 °F 55.9 °F 98% 30.26 in 10.0 mi Calm Calm - N/A   Overcast
11:35 PM 56.8 °F 56.3 °F 98% 30.26 in 10.0 mi Calm Calm - N/A   Overcast
11:55 PM 56.7 °F 55.4 °F 96% 30.26 in 10.0 mi Calm Calm - N/A   Overcast